createdAt,value
2023-04-30T00:02:21.252Z,100025.38
2023-04-30T00:04:50.993Z,100021.97
2023-04-30T00:07:21.834Z,100036.41
2023-04-30T00:09:53.068Z,100031.31
2023-04-30T00:12:23.570Z,100039.72
2023-04-30T00:14:53.387Z,100041.28
2023-04-30T00:17:23.050Z,100045.63
2023-04-30T00:19:53.429Z,100052.66
2023-04-30T00:22:23.298Z,100048.22
2023-04-30T00:24:53.508Z,100054.22
2023-04-30T00:27:23.375Z,100057.09
2023-04-30T00:29:53.379Z,100037.09
2023-04-30T00:32:23.197Z,100037.97
2023-04-30T00:34:52.958Z,100041.53
2023-04-30T00:37:22.598Z,100048.31
2023-04-30T00:39:52.895Z,100051.44
2023-04-30T00:42:22.752Z,100050.91
2023-04-30T00:44:52.344Z,100052.75
2023-04-30T00:47:22.299Z,100053.47
2023-04-30T00:49:52.469Z,100051.75
2023-04-30T00:52:22.553Z,100050.63
2023-04-30T00:54:55.097Z,100065.06
2023-04-30T00:57:24.733Z,100055.34
2023-04-30T00:59:54.662Z,100052.94
2023-04-30T01:02:24.724Z,100052.56
2023-04-30T01:04:54.401Z,100059.03
2023-04-30T01:07:24.062Z,100058.69
2023-04-30T01:09:54.002Z,100051.63
2023-04-30T01:12:44.589Z,100055.34
2023-04-30T01:15:35.545Z,100058.84
2023-04-30T01:18:10.734Z,100067.47
2023-04-30T01:20:46.367Z,100060.28
2023-04-30T01:23:15.449Z,100057.09
2023-04-30T01:26:02.965Z,100047.78
2023-04-30T01:28:32.601Z,100043.72
2023-04-30T01:31:02.306Z,100044.56
2023-04-30T01:33:32.034Z,100043.16
2023-04-30T01:36:21.793Z,100037.88
2023-04-30T01:38:59.896Z,100048.69
2023-04-30T01:41:47.628Z,100044.19
2023-04-30T01:44:39.144Z,100042.13
2023-04-30T01:47:49.114Z,100037.81
2023-04-30T01:50:18.755Z,100037.81
2023-04-30T01:53:00.870Z,100034.91
2023-04-30T01:55:37.661Z,100038.06
2023-04-30T01:58:12.527Z,100031.78
2023-04-30T02:00:42.618Z,100034.09
2023-04-30T02:03:12.517Z,100027.34
2023-04-30T02:05:42.435Z,100023.09
2023-04-30T02:08:12.218Z,100030.03
2023-04-30T02:10:41.900Z,100013.34
2023-04-30T02:13:11.634Z,100012.00
2023-04-30T02:15:41.351Z,100012.25
2023-04-30T02:18:11.113Z,100014.00
2023-04-30T02:20:40.830Z,100013.44
2023-04-30T02:23:11.393Z,100010.69
2023-04-30T02:25:41.069Z,100006.91
2023-04-30T02:28:10.767Z,100005.94
2023-04-30T02:30:40.867Z,100006.47
2023-04-30T02:33:13.821Z,100001.50
2023-04-30T02:35:43.874Z,100004.56
2023-04-30T02:38:13.490Z,99993.50
2023-04-30T02:40:44.264Z,99992.56
2023-04-30T02:43:14.000Z,99988.03
2023-04-30T02:45:43.715Z,99980.41
2023-04-30T02:48:13.470Z,99982.28
2023-04-30T02:50:43.103Z,99981.69
2023-04-30T02:53:12.786Z,99976.13
2023-04-30T02:55:42.485Z,99980.41
2023-04-30T02:58:12.220Z,99972.09
2023-04-30T03:00:41.897Z,99965.84
2023-04-30T03:03:11.702Z,99962.78
2023-04-30T03:05:41.465Z,99972.25
2023-04-30T03:08:11.142Z,99972.19
2023-04-30T03:10:40.762Z,99952.63
2023-04-30T03:13:10.671Z,99956.97
2023-04-30T03:15:40.316Z,99947.09
2023-04-30T03:18:10.049Z,99941.63
2023-04-30T03:20:39.756Z,99941.38
2023-04-30T03:23:09.485Z,99936.63
2023-04-30T03:25:39.136Z,99931.22
2023-04-30T03:28:08.816Z,99925.59
2023-04-30T03:30:38.465Z,99932.25
2023-04-30T03:33:10.668Z,99938.94
2023-04-30T03:35:40.467Z,99941.38
2023-04-30T03:38:10.106Z,99927.38
2023-04-30T03:40:39.801Z,99917.19
2023-04-30T03:43:09.486Z,99926.41
2023-04-30T03:45:39.156Z,99916.22
2023-04-30T03:48:08.936Z,99913.56
2023-04-30T03:50:38.652Z,99906.28
2023-04-30T03:53:08.397Z,99904.03
2023-04-30T03:55:38.620Z,99896.88
2023-04-30T03:58:08.340Z,99892.97
2023-04-30T04:00:38.340Z,99892.44
2023-04-30T04:03:08.981Z,99891.41
2023-04-30T04:05:38.624Z,99891.75
2023-04-30T04:08:09.082Z,99884.72
2023-04-30T04:10:38.790Z,99870.25
2023-04-30T04:13:08.700Z,99870.59
2023-04-30T04:15:38.384Z,99872.50
2023-04-30T04:18:10.005Z,99858.66
2023-04-30T04:20:39.749Z,99855.13
2023-04-30T04:23:09.421Z,99846.69
2023-04-30T04:25:40.942Z,99864.81
2023-04-30T04:28:10.614Z,99848.69
2023-04-30T04:30:41.625Z,99849.13
2023-04-30T04:33:12.081Z,99848.69
2023-04-30T04:35:42.276Z,99848.78
2023-04-30T04:38:12.052Z,99837.88
2023-04-30T04:40:41.860Z,99831.84
2023-04-30T04:43:11.499Z,99843.16
2023-04-30T04:45:42.297Z,99842.38
2023-04-30T04:48:12.092Z,99825.78
2023-04-30T04:50:42.626Z,99826.59
2023-04-30T04:53:12.464Z,99830.19
2023-04-30T04:55:42.148Z,99828.78
2023-04-30T04:58:11.736Z,99827.75
2023-04-30T05:00:41.731Z,99824.63
2023-04-30T05:03:11.911Z,99827.13
2023-04-30T05:05:41.798Z,99833.56
2023-04-30T05:08:11.476Z,99831.88
2023-04-30T05:10:41.141Z,99818.16
2023-04-30T05:13:10.802Z,99823.34
2023-04-30T05:15:40.521Z,99828.53
2023-04-30T05:18:10.317Z,99819.25
2023-04-30T05:20:40.026Z,99809.19
2023-04-30T05:23:09.768Z,99809.09
2023-04-30T05:25:39.521Z,99818.63
2023-04-30T05:28:09.363Z,99820.47
2023-04-30T05:30:39.059Z,99817.13
2023-04-30T05:33:08.799Z,99820.84
2023-04-30T05:35:38.497Z,99819.19
2023-04-30T05:38:08.114Z,99815.50
2023-04-30T05:40:37.866Z,99808.06
2023-04-30T05:43:07.554Z,99815.94
2023-04-30T05:45:37.313Z,99807.19
2023-04-30T05:48:07.253Z,99798.75
2023-04-30T05:50:36.931Z,99800.38
2023-04-30T05:53:06.559Z,99801.63
2023-04-30T05:55:36.335Z,99789.66
2023-04-30T05:58:05.955Z,99798.16
2023-04-30T06:00:35.593Z,99792.97
2023-04-30T06:03:05.327Z,99794.84
2023-04-30T06:05:35.173Z,99791.94
2023-04-30T06:08:04.955Z,99795.03
2023-04-30T06:10:34.633Z,99792.97
2023-04-30T06:13:04.259Z,99800.66
2023-04-30T06:15:33.941Z,99788.19
2023-04-30T06:18:03.633Z,99788.03
2023-04-30T06:20:33.393Z,99790.50
2023-04-30T06:23:05.353Z,99778.91
2023-04-30T06:25:35.042Z,99777.69
2023-04-30T06:28:04.725Z,99772.16
2023-04-30T06:30:34.843Z,99772.53
2023-04-30T06:33:04.842Z,99776.47
2023-04-30T06:35:34.608Z,99778.78
2023-04-30T06:38:04.244Z,99780.81
2023-04-30T06:40:33.916Z,99778.78
2023-04-30T06:43:03.732Z,99777.06
2023-04-30T06:45:33.349Z,99768.66
2023-04-30T06:48:03.150Z,99791.56
2023-04-30T06:50:32.876Z,99781.75
2023-04-30T06:53:02.838Z,99783.41
2023-04-30T06:55:32.502Z,99779.44
2023-04-30T06:58:02.180Z,99775.00
2023-04-30T07:00:31.912Z,99770.13
2023-04-30T07:03:06.003Z,99765.75
2023-04-30T07:05:35.840Z,99761.94
2023-04-30T07:08:05.943Z,99762.06
2023-04-30T07:10:35.784Z,99758.31
2023-04-30T07:13:05.477Z,99760.38
2023-04-30T07:15:35.498Z,99767.28
2023-04-30T07:18:05.938Z,99750.69
2023-04-30T07:20:35.825Z,99746.06
2023-04-30T07:23:05.503Z,99743.19
2023-04-30T07:25:35.118Z,99744.63
2023-04-30T07:28:04.747Z,99739.63
2023-04-30T07:30:35.302Z,99735.94
2023-04-30T07:33:04.958Z,99726.63
2023-04-30T07:35:34.671Z,99738.41
2023-04-30T07:38:04.339Z,99754.91
2023-04-30T07:40:35.952Z,99752.13
2023-04-30T07:43:06.707Z,99736.59
2023-04-30T07:45:36.745Z,99745.00
2023-04-30T07:48:06.666Z,99743.75
2023-04-30T07:50:36.626Z,99746.84
2023-04-30T07:53:10.860Z,99758.19
2023-04-30T07:55:40.594Z,99763.63
2023-04-30T07:58:10.387Z,99763.88
2023-04-30T08:00:40.115Z,99764.44
2023-04-30T08:03:10.610Z,99753.63
2023-04-30T08:05:40.357Z,99746.22
2023-04-30T08:08:10.353Z,99751.44
2023-04-30T08:10:40.981Z,99755.72
2023-04-30T08:13:10.681Z,99761.09
2023-04-30T08:15:41.635Z,99760.88
2023-04-30T08:18:11.893Z,99762.59
2023-04-30T08:20:41.829Z,99759.94
2023-04-30T08:23:11.511Z,99759.44
2023-04-30T08:25:41.149Z,99757.44
2023-04-30T08:28:10.929Z,99754.13
2023-04-30T08:30:41.104Z,99754.91
2023-04-30T08:33:10.888Z,99747.50
2023-04-30T08:35:40.567Z,99745.59
2023-04-30T08:38:10.244Z,99746.22
2023-04-30T08:40:51.063Z,99755.22
2023-04-30T08:43:21.945Z,99745.28
2023-04-30T08:45:51.638Z,99746.47
2023-04-30T08:48:21.292Z,99748.38
2023-04-30T08:50:50.904Z,99741.44
2023-04-30T08:53:22.629Z,99751.44
2023-04-30T08:55:52.712Z,99755.84
2023-04-30T08:58:22.733Z,99758.06
2023-04-30T09:00:52.541Z,99754.63
2023-04-30T09:03:25.066Z,99756.09
2023-04-30T09:05:54.926Z,99759.59
2023-04-30T09:08:46.898Z,99769.97
2023-04-30T09:11:30.029Z,99764.03
2023-04-30T09:14:04.124Z,99767.78
2023-04-30T09:16:48.383Z,99767.78
2023-04-30T09:19:31.991Z,99765.50
2023-04-30T09:22:02.422Z,99763.69
2023-04-30T09:24:32.130Z,99775.44
2023-04-30T09:27:02.690Z,99768.81
2023-04-30T09:29:41.708Z,99770.91
2023-04-30T09:32:11.729Z,99775.09
2023-04-30T09:34:41.775Z,99765.78
2023-04-30T09:37:12.585Z,99763.50
2023-04-30T09:39:56.634Z,99767.41
2023-04-30T09:42:26.520Z,99763.66
2023-04-30T09:44:56.250Z,99761.47
2023-04-30T09:47:25.993Z,99766.59
2023-04-30T09:49:56.364Z,99774.41
2023-04-30T09:52:26.280Z,99788.09
2023-04-30T09:54:56.036Z,99793.91
2023-04-30T09:57:26.179Z,99791.81
2023-04-30T09:59:56.368Z,99797.63
2023-04-30T10:02:27.475Z,99787.25
2023-04-30T10:04:58.444Z,99795.06
2023-04-30T10:07:29.111Z,99799.63
2023-04-30T10:10:12.076Z,99803.53
2023-04-30T10:12:52.727Z,99805.34
2023-04-30T10:15:41.650Z,99811.78
2023-04-30T10:18:32.897Z,99810.69
2023-04-30T10:21:04.778Z,99809.28
2023-04-30T10:23:34.422Z,99816.97
2023-04-30T10:26:04.074Z,99823.34
2023-04-30T10:28:35.128Z,99846.88
2023-04-30T10:31:04.837Z,99844.00
2023-04-30T10:33:36.493Z,99840.03
2023-04-30T10:36:08.043Z,99836.72
2023-04-30T10:38:37.749Z,99824.53
2023-04-30T10:41:09.697Z,99840.44
2023-04-30T10:43:39.894Z,99844.72
2023-04-30T10:46:10.428Z,99848.50
2023-04-30T10:48:40.308Z,99850.38
2023-04-30T10:51:09.976Z,99849.78
2023-04-30T10:53:41.742Z,99854.06
2023-04-30T10:56:11.512Z,99858.81
2023-04-30T10:58:42.046Z,99869.38
2023-04-30T11:01:12.412Z,99879.69
2023-04-30T11:04:05.485Z,99900.78
2023-04-30T11:06:56.316Z,99905.06
2023-04-30T11:09:45.676Z,99899.69
2023-04-30T11:12:16.986Z,99915.19
2023-04-30T11:14:47.605Z,99923.25
2023-04-30T11:17:25.083Z,99915.03
2023-04-30T11:19:55.618Z,99909.66
2023-04-30T11:22:26.238Z,99902.63
2023-04-30T11:25:01.662Z,99910.03
2023-04-30T11:27:32.968Z,99913.13
2023-04-30T11:30:02.884Z,99905.69
2023-04-30T11:32:36.789Z,99916.63
2023-04-30T11:35:07.141Z,99928.22
2023-04-30T11:37:42.062Z,99938.13
2023-04-30T11:40:12.916Z,99932.75
2023-04-30T11:42:46.386Z,99924.88
2023-04-30T11:45:20.208Z,99925.88
2023-04-30T11:47:51.307Z,99936.84
2023-04-30T11:50:29.043Z,99943.41
2023-04-30T11:52:59.716Z,99946.28
2023-04-30T11:55:30.077Z,99936.31
2023-04-30T11:58:01.421Z,99940.41
2023-04-30T12:00:31.946Z,99936.44
2023-04-30T12:03:05.058Z,99943.09
2023-04-30T12:05:34.779Z,99951.59
2023-04-30T12:08:08.384Z,99967.31
2023-04-30T12:10:38.452Z,99967.50
2023-04-30T12:13:08.085Z,99969.63
2023-04-30T12:15:38.701Z,99984.16
2023-04-30T12:18:15.379Z,99983.91
2023-04-30T12:20:45.089Z,99996.50
2023-04-30T12:23:14.708Z,99991.69
2023-04-30T12:25:47.289Z,99998.56
2023-04-30T12:28:17.039Z,100001.59
2023-04-30T12:30:46.787Z,100009.84
2023-04-30T12:33:17.042Z,100010.47
2023-04-30T12:35:46.829Z,100003.06
2023-04-30T12:38:20.078Z,100001.97
2023-04-30T12:40:53.044Z,100005.47
2023-04-30T12:43:22.669Z,100008.56
2023-04-30T12:45:53.605Z,100004.66
2023-04-30T12:48:29.434Z,99996.78
2023-04-30T12:51:00.474Z,99992.72
2023-04-30T12:53:30.400Z,99978.03
2023-04-30T12:56:16.997Z,99994.19
2023-04-30T12:58:48.908Z,99979.41
2023-04-30T13:01:23.213Z,99979.53
2023-04-30T13:03:54.179Z,99973.13
2023-04-30T13:06:25.107Z,99979.53
2023-04-30T13:08:58.518Z,99968.13
2023-04-30T13:11:28.906Z,99966.56
2023-04-30T13:13:58.638Z,99954.69
2023-04-30T13:16:28.852Z,99959.50
2023-04-30T13:18:58.595Z,99955.41
2023-04-30T13:21:29.395Z,99943.03
2023-04-30T13:26:29.177Z,99954.75
2023-04-30T13:28:58.827Z,99955.41
2023-04-30T13:31:28.757Z,99953.94
2023-04-30T13:33:58.446Z,99964.09
2023-04-30T13:36:28.716Z,99967.91
2023-04-30T13:38:59.063Z,99968.94
2023-04-30T13:41:28.866Z,99973.66
2023-04-30T13:43:58.613Z,99981.63
2023-04-30T13:46:28.386Z,99974.16
2023-04-30T13:48:58.521Z,99983.03
2023-04-30T13:51:29.406Z,99981.56
2023-04-30T13:53:59.094Z,99988.09
2023-04-30T13:56:28.820Z,99999.84
2023-04-30T13:58:58.498Z,100007.25
2023-04-30T14:01:28.522Z,100011.13
2023-04-30T14:03:58.371Z,100038.59
2023-04-30T14:06:28.070Z,100045.28
2023-04-30T14:08:57.846Z,100052.31
2023-04-30T14:11:29.119Z,100061.84
2023-04-30T14:13:58.965Z,100059.00
2023-04-30T14:16:28.977Z,100040.91
2023-04-30T14:18:58.731Z,100036.75
2023-04-30T14:21:30.273Z,100032.31
2023-04-30T14:23:59.898Z,100043.31
2023-04-30T14:26:29.642Z,100046.47
2023-04-30T14:28:59.896Z,100047.94
2023-04-30T14:31:29.549Z,100052.31
2023-04-30T14:33:59.359Z,100047.78
2023-04-30T14:36:29.168Z,100052.59
2023-04-30T14:38:58.860Z,100044.81
2023-04-30T14:41:28.536Z,100048.91
2023-04-30T14:43:58.165Z,100041.50
2023-04-30T14:46:27.932Z,100038.91
2023-04-30T14:48:58.040Z,100038.41
2023-04-30T14:51:27.799Z,100045.63
2023-04-30T14:53:57.744Z,100056.34
2023-04-30T14:56:27.454Z,100051.47
2023-04-30T14:58:57.170Z,100057.19
2023-04-30T15:01:28.510Z,100060.16
2023-04-30T15:03:58.779Z,100066.91
2023-04-30T15:06:29.042Z,100065.06
2023-04-30T15:08:58.673Z,100065.22
2023-04-30T15:11:28.415Z,100067.28
2023-04-30T15:13:58.165Z,100071.63
2023-04-30T15:16:27.879Z,100074.13
2023-04-30T15:18:57.604Z,100073.19
2023-04-30T15:21:28.173Z,100076.44
2023-04-30T15:23:57.853Z,100087.06
2023-04-30T15:26:28.664Z,100092.88
2023-04-30T15:28:58.740Z,100086.97
2023-04-30T15:31:28.439Z,100090.13
2023-04-30T15:33:58.258Z,100099.19
2023-04-30T15:36:28.147Z,100102.50
2023-04-30T15:38:57.867Z,100095.28
2023-04-30T15:41:27.538Z,100100.00
2023-04-30T15:43:57.277Z,100102.41
2023-04-30T15:46:27.188Z,100118.88
2023-04-30T15:48:57.002Z,100105.19
2023-04-30T15:51:26.762Z,100105.38
2023-04-30T15:53:56.447Z,100105.19
2023-04-30T15:56:28.093Z,100107.31
2023-04-30T15:58:57.768Z,100105.94
2023-04-30T16:01:27.540Z,100109.44
2023-04-30T16:03:58.693Z,100118.41
2023-04-30T16:06:30.449Z,100114.53
2023-04-30T16:09:00.304Z,100121.66
2023-04-30T16:11:29.983Z,100118.13
2023-04-30T16:13:59.599Z,100114.59
2023-04-30T16:16:30.056Z,100115.34
2023-04-30T16:18:59.745Z,100117.28
2023-04-30T16:21:30.711Z,100119.81
2023-04-30T16:24:00.376Z,100118.50
2023-04-30T16:26:30.209Z,100118.69
2023-04-30T16:28:59.872Z,100109.44
2023-04-30T16:31:29.868Z,100109.97
2023-04-30T16:33:59.574Z,100111.34
2023-04-30T16:36:29.576Z,100113.88
2023-04-30T16:38:59.481Z,100109.06
2023-04-30T16:41:29.177Z,100113.75
2023-04-30T16:43:58.875Z,100107.84
2023-04-30T16:46:29.329Z,100099.97
2023-04-30T16:48:59.210Z,100098.69
2023-04-30T16:51:28.894Z,100105.25
2023-04-30T16:53:58.587Z,100098.47
2023-04-30T16:56:28.556Z,100100.53
2023-04-30T16:58:58.349Z,100106.91
2023-04-30T17:01:28.288Z,100102.03
2023-04-30T17:03:58.097Z,100104.31
2023-04-30T17:06:27.996Z,100103.31
2023-04-30T17:08:57.739Z,100098.13
2023-04-30T17:11:27.478Z,100100.34
2023-04-30T17:13:57.165Z,100098.69
2023-04-30T17:16:26.839Z,100102.19
2023-04-30T17:18:56.612Z,100112.91
2023-04-30T17:21:26.291Z,100118.47
2023-04-30T17:23:55.988Z,100114.75
2023-04-30T17:26:26.523Z,100117.97
2023-04-30T17:28:56.126Z,100117.63
2023-04-30T17:31:25.790Z,100116.41
2023-04-30T17:33:55.735Z,100126.31
2023-04-30T17:36:26.441Z,100126.78
2023-04-30T17:38:57.924Z,100127.69
2023-04-30T17:41:27.830Z,100126.69
2023-04-30T17:43:57.457Z,100121.34
2023-04-30T17:46:27.155Z,100126.69
2023-04-30T17:48:56.805Z,100132.41
2023-04-30T17:51:26.531Z,100128.06
2023-04-30T17:53:56.792Z,100130.56
2023-04-30T17:56:26.509Z,100132.22
2023-04-30T17:58:57.442Z,100138.25
2023-04-30T18:01:27.653Z,100136.22
2023-04-30T18:03:57.490Z,100148.59
2023-04-30T18:06:27.680Z,100148.31
2023-04-30T18:08:57.356Z,100149.28
2023-04-30T18:11:27.331Z,100146.75
2023-04-30T18:14:13.083Z,100144.75
2023-04-30T18:16:42.900Z,100156.53
2023-04-30T18:19:12.760Z,100150.88
2023-04-30T18:21:42.504Z,100152.19
2023-04-30T18:24:12.398Z,100147.38
2023-04-30T18:26:42.080Z,100147.66
2023-04-30T18:29:11.823Z,100150.88
2023-04-30T18:31:41.643Z,100158.28
2023-04-30T18:34:11.423Z,100156.59
2023-04-30T18:36:46.528Z,100152.53
2023-04-30T18:39:16.252Z,100155.59
2023-04-30T18:41:46.270Z,100154.59
2023-04-30T18:44:15.868Z,100162.44
2023-04-30T18:46:45.590Z,100151.22
2023-04-30T18:49:15.493Z,100149.56
2023-04-30T18:51:45.164Z,100157.38
2023-04-30T18:54:15.597Z,100156.78
2023-04-30T18:56:46.513Z,100156.25
2023-04-30T18:59:16.460Z,100161.31
2023-04-30T19:01:46.141Z,100162.78
2023-04-30T19:04:17.444Z,100170.00
2023-04-30T19:06:49.807Z,100165.84
2023-04-30T19:09:19.694Z,100170.00
2023-04-30T19:11:50.503Z,100175.72
2023-04-30T19:14:20.190Z,100174.22
2023-04-30T19:16:49.952Z,100170.38
2023-04-30T19:19:19.699Z,100173.50
2023-04-30T19:21:49.391Z,100177.56
2023-04-30T19:24:19.093Z,100180.25
2023-04-30T19:26:48.787Z,100178.22
2023-04-30T19:29:18.614Z,100187.75
2023-04-30T19:31:48.444Z,100185.44
2023-04-30T19:34:18.298Z,100192.50
2023-04-30T19:36:48.035Z,100188.34
2023-04-30T19:39:17.962Z,100191.50
2023-04-30T19:41:47.878Z,100197.22
2023-04-30T19:44:21.472Z,100188.34
2023-04-30T19:46:51.166Z,100207.69
2023-04-30T19:49:20.776Z,100207.59
2023-04-30T19:51:50.422Z,100214.81
2023-04-30T19:54:20.473Z,100210.09
2023-04-30T19:56:54.154Z,100221.16
2023-04-30T19:59:23.897Z,100217.81
2023-04-30T20:01:54.974Z,100226.88
2023-04-30T20:04:24.672Z,100222.16
2023-04-30T20:06:58.364Z,100228.34
2023-04-30T20:09:28.085Z,100229.06
2023-04-30T20:11:57.846Z,100232.75
2023-04-30T20:14:27.752Z,100231.44
2023-04-30T20:16:58.034Z,100246.16
2023-04-30T20:19:28.069Z,100236.09
2023-04-30T20:21:57.686Z,100238.31
2023-04-30T20:24:27.306Z,100235.13
2023-04-30T20:26:57.005Z,100242.34
2023-04-30T20:29:27.008Z,100245.19
2023-04-30T20:31:57.017Z,100240.16
2023-04-30T20:34:27.100Z,100245.19
2023-04-30T20:36:56.849Z,100247.19
2023-04-30T20:39:27.192Z,100247.84
2023-04-30T20:41:56.854Z,100253.41
2023-04-30T20:44:28.310Z,100255.06
2023-04-30T20:46:58.040Z,100263.91
2023-04-30T20:49:28.596Z,100261.59
2023-04-30T20:51:58.195Z,100265.78
2023-04-30T20:54:28.410Z,100280.34
2023-04-30T20:56:58.101Z,100280.31
2023-04-30T20:59:27.815Z,100284.03
2023-04-30T21:01:57.574Z,100293.41
2023-04-30T21:04:27.229Z,100302.13
2023-04-30T21:06:57.128Z,100310.50
2023-04-30T21:09:26.889Z,100301.09
2023-04-30T21:11:56.664Z,100316.53
2023-04-30T21:14:26.348Z,100321.22
2023-04-30T21:16:56.093Z,100320.22
2023-04-30T21:19:26.324Z,100323.75
2023-04-30T21:21:55.962Z,100331.59
2023-04-30T21:24:25.870Z,100335.28
2023-04-30T21:26:55.564Z,100341.66
2023-04-30T21:29:25.755Z,100335.59
2023-04-30T21:31:57.625Z,100345.34
2023-04-30T21:34:27.342Z,100349.69
2023-04-30T21:36:57.041Z,100353.22
2023-04-30T21:39:26.784Z,100356.53
2023-04-30T21:41:59.322Z,100367.75
2023-04-30T21:44:28.988Z,100366.25
2023-04-30T21:46:58.661Z,100362.72
2023-04-30T21:49:28.594Z,100373.97
2023-04-30T21:51:58.374Z,100371.28
2023-04-30T21:54:27.962Z,100379.81
2023-04-30T21:56:57.572Z,100381.16
2023-04-30T21:59:27.175Z,100384.66
2023-04-30T22:01:56.867Z,100386.53
2023-04-30T22:04:27.681Z,100388.03
2023-04-30T22:06:57.326Z,100393.03
2023-04-30T22:09:27.011Z,100398.78
2023-04-30T22:11:56.676Z,100399.91
2023-04-30T22:14:26.329Z,100408.28
2023-04-30T22:16:56.241Z,100413.16
2023-04-30T22:19:26.045Z,100425.72
2023-04-30T22:21:55.712Z,100427.03
2023-04-30T22:24:25.425Z,100431.22
2023-04-30T22:26:55.550Z,100434.22
2023-04-30T22:29:25.743Z,100442.44
2023-04-30T22:31:55.433Z,100451.69
2023-04-30T22:34:35.814Z,100456.50
2023-04-30T22:37:05.992Z,100455.19
2023-04-30T22:39:35.698Z,100463.72
2023-04-30T22:42:06.383Z,100463.06
2023-04-30T22:44:36.037Z,100469.56
2023-04-30T22:47:05.889Z,100471.13
2023-04-30T22:49:35.571Z,100476.09
2023-04-30T22:52:06.002Z,100469.56
2023-04-30T22:54:36.961Z,100469.06
2023-04-30T22:57:06.583Z,100478.75
2023-04-30T22:59:36.239Z,100479.78
2023-04-30T23:02:08.708Z,100485.97
2023-04-30T23:04:38.746Z,100484.34
2023-04-30T23:07:08.608Z,100478.78
2023-04-30T23:09:38.195Z,100483.16
2023-04-30T23:12:08.102Z,100490.34
2023-04-30T23:14:37.745Z,100486.66
2023-04-30T23:17:07.838Z,100479.81
2023-04-30T23:19:37.601Z,100480.13
2023-04-30T23:22:07.426Z,100479.16
2023-04-30T23:24:37.527Z,100486.34
2023-04-30T23:27:07.188Z,100477.97
2023-04-30T23:29:37.001Z,100493.72
2023-04-30T23:32:07.287Z,100501.91
2023-04-30T23:34:37.062Z,100511.31
2023-04-30T23:37:09.708Z,100522.50
2023-04-30T23:39:39.378Z,100515.81
2023-04-30T23:42:09.583Z,100528.22
2023-04-30T23:44:39.418Z,100533.59
2023-04-30T23:47:12.414Z,100535.06
2023-04-30T23:49:44.697Z,100546.94
2023-04-30T23:52:15.989Z,100558.34
2023-04-30T23:54:45.658Z,100555.69
2023-04-30T23:57:15.423Z,100566.53
2023-04-30T23:59:45.149Z,100572.75
